createdAt,value
2019-05-19T00:01:23.994Z,27.50
2019-05-19T00:03:59.892Z,27.23
2019-05-19T00:06:34.587Z,27.20
2019-05-19T00:09:06.416Z,29.50
2019-05-19T00:11:41.244Z,28.27
2019-05-19T00:14:15.078Z,29.10
2019-05-19T00:16:48.253Z,29.03
2019-05-19T00:19:26.898Z,30.00
2019-05-19T00:21:59.086Z,28.10
2019-05-19T00:24:32.208Z,29.83
2019-05-19T00:27:05.612Z,29.10
2019-05-19T00:29:38.144Z,29.87
2019-05-19T00:32:09.350Z,31.03
2019-05-19T00:34:41.126Z,29.03
2019-05-19T00:37:17.640Z,29.70
2019-05-19T00:39:49.157Z,29.70
2019-05-19T00:42:21.654Z,28.73
2019-05-19T00:44:54.237Z,29.90
2019-05-19T00:47:27.493Z,30.90
2019-05-19T00:50:01.880Z,31.27
2019-05-19T00:52:44.315Z,31.70
2019-05-19T00:55:18.021Z,30.23
2019-05-19T00:57:49.622Z,29.50
2019-05-19T01:00:22.358Z,30.63
2019-05-19T01:02:56.950Z,28.90
2019-05-19T01:05:30.185Z,30.87
2019-05-19T01:08:02.218Z,31.67
2019-05-19T01:10:37.954Z,31.77
2019-05-19T01:13:14.002Z,30.17
2019-05-19T01:15:47.075Z,28.30
2019-05-19T01:18:19.878Z,30.73
2019-05-19T01:20:51.793Z,29.43
2019-05-19T01:23:24.293Z,30.20
2019-05-19T01:25:58.324Z,30.70
2019-05-19T01:28:30.561Z,31.07
2019-05-19T01:31:03.523Z,31.90
2019-05-19T01:33:38.941Z,32.80
2019-05-19T01:36:14.725Z,28.00
2019-05-19T01:38:49.168Z,29.87
2019-05-19T01:41:22.316Z,28.80
2019-05-19T01:43:56.453Z,29.40
2019-05-19T01:46:31.802Z,28.70
2019-05-19T01:49:05.859Z,30.43
2019-05-19T01:51:38.486Z,29.90
2019-05-19T01:54:11.684Z,28.53
2019-05-19T01:56:44.796Z,28.10
2019-05-19T01:59:17.474Z,29.30
2019-05-19T02:01:50.807Z,30.00
2019-05-19T02:04:24.891Z,29.33
2019-05-19T02:06:58.051Z,28.43
2019-05-19T02:09:30.774Z,29.00
2019-05-19T02:12:04.265Z,29.20
2019-05-19T02:14:38.560Z,30.50
2019-05-19T02:17:10.579Z,29.00
2019-05-19T02:19:42.770Z,28.77
2019-05-19T02:22:15.376Z,29.67
2019-05-19T02:24:47.545Z,31.40
2019-05-19T02:27:21.082Z,31.07
2019-05-19T02:29:54.898Z,28.70
2019-05-19T02:32:26.554Z,31.10
2019-05-19T02:35:00.893Z,28.77
2019-05-19T02:37:43.968Z,27.50
2019-05-19T02:40:18.322Z,29.50
2019-05-19T02:42:54.184Z,30.20
2019-05-19T02:45:28.403Z,29.93
2019-05-19T02:48:04.721Z,27.47
2019-05-19T02:50:51.825Z,27.50
2019-05-19T02:53:20.029Z,29.50
2019-05-19T02:55:53.799Z,30.10
2019-05-19T02:58:27.002Z,32.90
2019-05-19T03:01:00.146Z,32.10
2019-05-19T03:03:33.366Z,33.93
2019-05-19T03:06:05.288Z,32.70
2019-05-19T03:08:39.969Z,33.67
2019-05-19T03:11:13.227Z,33.03
2019-05-19T03:13:46.136Z,33.20
2019-05-19T03:16:17.885Z,32.03
2019-05-19T03:18:51.617Z,33.00
2019-05-19T03:21:25.686Z,34.30
2019-05-19T03:23:56.990Z,34.37
2019-05-19T03:26:29.894Z,37.20
2019-05-19T03:29:02.961Z,34.47
2019-05-19T03:31:41.708Z,34.10
2019-05-19T03:34:16.668Z,33.10
2019-05-19T03:36:49.016Z,33.93
2019-05-19T03:39:23.063Z,33.03
2019-05-19T03:41:57.651Z,34.17
2019-05-19T03:44:29.258Z,34.20
2019-05-19T03:47:03.388Z,31.10
2019-05-19T03:49:34.969Z,32.90
2019-05-19T03:52:06.201Z,34.63
2019-05-19T03:54:39.873Z,33.70
2019-05-19T03:57:11.882Z,34.90
2019-05-19T03:59:44.755Z,33.90
2019-05-19T04:02:16.940Z,33.90
2019-05-19T04:04:49.938Z,36.10
2019-05-19T04:07:23.867Z,35.30
2019-05-19T04:09:55.101Z,34.80
2019-05-19T04:12:26.324Z,34.43
2019-05-19T04:15:00.005Z,34.07
2019-05-19T04:17:45.264Z,32.40
2019-05-19T04:20:18.661Z,34.13
2019-05-19T04:22:51.054Z,32.20
2019-05-19T04:25:27.301Z,33.50
2019-05-19T04:28:01.076Z,30.80
2019-05-19T04:30:35.615Z,32.17
2019-05-19T04:33:09.067Z,31.07
2019-05-19T04:35:41.359Z,32.97
2019-05-19T04:38:17.210Z,31.63
2019-05-19T04:40:49.331Z,31.10
2019-05-19T04:43:21.415Z,31.07
2019-05-19T04:45:56.163Z,33.03
2019-05-19T04:48:32.062Z,33.20
2019-05-19T04:51:04.618Z,32.97
2019-05-19T04:53:36.336Z,33.50
2019-05-19T04:56:10.909Z,32.13
2019-05-19T04:58:42.553Z,28.03
2019-05-19T05:01:18.274Z,29.73
2019-05-19T05:03:52.907Z,34.20
2019-05-19T05:06:24.673Z,31.37
2019-05-19T05:08:58.450Z,31.90
2019-05-19T05:11:30.594Z,30.80
2019-05-19T05:14:05.706Z,32.17
2019-05-19T05:16:38.336Z,31.67
2019-05-19T05:19:15.032Z,32.97
2019-05-19T05:21:48.923Z,31.33
2019-05-19T05:24:21.516Z,31.37
2019-05-19T05:26:54.455Z,32.77
2019-05-19T05:29:27.520Z,32.87
2019-05-19T05:32:02.513Z,32.13
2019-05-19T05:34:36.932Z,32.60
2019-05-19T05:37:10.289Z,29.93
2019-05-19T05:39:42.181Z,31.00
2019-05-19T05:42:15.703Z,29.20
2019-05-19T05:44:49.539Z,30.87
2019-05-19T05:47:23.290Z,34.50
2019-05-19T05:49:57.512Z,30.77
2019-05-19T05:52:38.667Z,30.23
2019-05-19T05:55:17.036Z,30.53
2019-05-19T05:57:49.337Z,31.20
2019-05-19T06:00:23.721Z,32.13
2019-05-19T06:02:56.433Z,32.27
2019-05-19T06:05:29.698Z,31.20
2019-05-19T06:08:02.596Z,30.97
2019-05-19T06:10:35.058Z,31.37
2019-05-19T06:13:06.842Z,34.13
2019-05-19T06:15:39.719Z,33.37
2019-05-19T06:18:13.598Z,32.80
2019-05-19T06:20:46.155Z,31.30
2019-05-19T06:23:18.674Z,31.73
2019-05-19T06:25:51.822Z,27.07
2019-05-19T06:28:25.109Z,28.63
2019-05-19T06:30:56.858Z,30.10
2019-05-19T06:33:31.545Z,28.57
2019-05-19T06:36:07.502Z,28.97
2019-05-19T06:38:38.936Z,28.93
2019-05-19T06:41:15.135Z,28.10
2019-05-19T06:43:48.162Z,25.30
2019-05-19T06:46:22.710Z,26.20
2019-05-19T06:48:57.040Z,25.60
2019-05-19T06:51:33.276Z,26.30
2019-05-19T06:54:05.967Z,26.10
2019-05-19T06:56:38.830Z,24.97
2019-05-19T06:59:11.914Z,25.90
2019-05-19T07:01:45.056Z,25.10
2019-05-19T07:04:18.176Z,27.53
2019-05-19T07:06:51.345Z,25.03
2019-05-19T07:09:25.697Z,24.03
2019-05-19T07:12:01.762Z,24.90
2019-05-19T07:14:33.550Z,25.30
2019-05-19T07:17:05.914Z,22.90
2019-05-19T07:19:39.953Z,26.07
2019-05-19T07:22:12.022Z,26.20
2019-05-19T07:24:45.168Z,22.27
2019-05-19T07:27:19.894Z,25.43
2019-05-19T07:29:53.173Z,21.50
2019-05-19T07:32:28.860Z,23.30
2019-05-19T07:35:03.266Z,22.50
2019-05-19T07:37:49.621Z,23.23
2019-05-19T07:40:21.061Z,25.10
2019-05-19T07:42:54.053Z,23.20
2019-05-19T07:45:27.010Z,24.73
2019-05-19T07:47:59.896Z,23.63
2019-05-19T07:50:38.122Z,24.00
2019-05-19T07:53:13.901Z,23.20
2019-05-19T07:55:48.074Z,24.50
2019-05-19T07:58:21.957Z,24.03
2019-05-19T08:00:55.151Z,23.27
2019-05-19T08:03:27.183Z,23.50
2019-05-19T08:06:01.081Z,23.07
2019-05-19T08:08:33.358Z,22.80
2019-05-19T08:11:06.794Z,21.83
2019-05-19T08:13:41.197Z,24.87
2019-05-19T08:16:15.557Z,22.97
2019-05-19T08:18:49.858Z,21.10
2019-05-19T08:21:21.347Z,21.80
2019-05-19T08:24:00.262Z,21.77
2019-05-19T08:26:29.615Z,20.80
2019-05-19T08:29:07.923Z,23.30
2019-05-19T08:31:42.152Z,23.43
2019-05-19T08:34:16.566Z,22.67
2019-05-19T08:36:48.598Z,23.57
2019-05-19T08:39:23.226Z,26.90
2019-05-19T08:41:56.554Z,21.67
2019-05-19T08:44:29.481Z,21.60
2019-05-19T08:47:03.374Z,21.30
2019-05-19T08:49:37.482Z,24.17
2019-05-19T08:52:11.343Z,19.43
2019-05-19T08:54:44.800Z,20.07
2019-05-19T08:57:18.537Z,18.13
2019-05-19T08:59:52.918Z,18.80
2019-05-19T09:02:26.427Z,19.73
2019-05-19T09:05:14.025Z,18.70
2019-05-19T09:07:48.749Z,19.27
2019-05-19T09:10:21.522Z,18.40
2019-05-19T09:12:56.637Z,18.87
2019-05-19T09:15:30.644Z,19.07
2019-05-19T09:18:09.859Z,19.17
2019-05-19T09:20:46.012Z,23.00
2019-05-19T09:23:20.067Z,20.53
2019-05-19T09:25:53.089Z,19.23
2019-05-19T09:28:25.668Z,19.93
2019-05-19T09:30:58.660Z,20.93
2019-05-19T09:33:30.817Z,19.53
2019-05-19T09:36:03.647Z,18.90
2019-05-19T09:38:36.721Z,19.60
2019-05-19T09:41:10.407Z,20.50
2019-05-19T09:43:48.149Z,19.80
2019-05-19T09:46:21.894Z,20.40
2019-05-19T09:49:13.569Z,19.80
2019-05-19T09:51:46.127Z,20.93
2019-05-19T09:54:20.126Z,19.93
2019-05-19T09:56:52.421Z,21.17
2019-05-19T09:59:24.812Z,21.53
2019-05-19T10:01:58.535Z,20.00
2019-05-19T10:04:30.334Z,20.87
2019-05-19T10:07:05.622Z,23.57
2019-05-19T10:10:17.304Z,23.20
2019-05-19T10:12:50.513Z,24.37
2019-05-19T10:15:21.831Z,26.57
2019-05-19T10:17:54.873Z,25.60
2019-05-19T10:20:29.673Z,22.90
2019-05-19T10:23:02.054Z,23.00
2019-05-19T10:25:39.296Z,22.93
2019-05-19T10:28:47.068Z,23.13
2019-05-19T10:31:19.797Z,22.20
2019-05-19T10:33:55.233Z,21.83
2019-05-19T10:36:29.660Z,23.10
2019-05-19T10:39:05.919Z,26.87
2019-05-19T10:41:40.399Z,23.30
2019-05-19T10:44:12.920Z,22.07
2019-05-19T10:46:47.045Z,20.37
2019-05-19T10:49:21.019Z,21.97
2019-05-19T10:51:53.126Z,23.40
2019-05-19T10:54:25.286Z,22.03
2019-05-19T10:56:59.957Z,22.37
2019-05-19T10:59:33.248Z,23.10
2019-05-19T11:02:05.186Z,21.23
2019-05-19T11:04:40.677Z,21.10
2019-05-19T11:07:12.991Z,21.07
2019-05-19T11:09:48.512Z,19.63
2019-05-19T11:12:21.921Z,19.00
2019-05-19T11:14:55.838Z,20.57
2019-05-19T11:17:29.057Z,20.50
2019-05-19T11:20:02.172Z,19.53
2019-05-19T11:22:44.528Z,19.40
2019-05-19T11:25:31.584Z,18.90
2019-05-19T11:27:53.606Z,18.83
2019-05-19T11:30:27.143Z,20.00
2019-05-19T11:33:00.172Z,17.70
2019-05-19T11:35:34.863Z,17.33
2019-05-19T11:38:06.272Z,15.43
2019-05-19T11:40:40.967Z,15.20
2019-05-19T11:43:16.841Z,15.00
2019-05-19T11:45:50.370Z,13.83
2019-05-19T11:48:24.571Z,14.37
2019-05-19T11:50:57.679Z,14.77
2019-05-19T11:53:30.446Z,13.20
2019-05-19T11:56:06.717Z,13.73
2019-05-19T11:58:36.395Z,14.47
2019-05-19T12:01:10.644Z,12.93
2019-05-19T12:04:02.441Z,12.03
2019-05-19T12:07:09.771Z,11.50
2019-05-19T12:09:43.540Z,12.57
2019-05-19T12:12:17.239Z,13.57
2019-05-19T12:15:01.084Z,13.50
2019-05-19T12:17:42.860Z,14.60
2019-05-19T12:20:26.666Z,15.03
2019-05-19T12:23:12.907Z,13.93
2019-05-19T12:25:47.417Z,14.73
2019-05-19T12:28:35.343Z,14.03
2019-05-19T12:31:07.928Z,15.33
2019-05-19T12:33:52.400Z,15.87
2019-05-19T12:36:24.693Z,14.80
2019-05-19T12:38:57.763Z,15.10
2019-05-19T12:41:39.018Z,14.50
2019-05-19T12:44:13.920Z,14.27
2019-05-19T12:46:48.492Z,14.90
2019-05-19T12:49:20.332Z,14.87
2019-05-19T12:51:53.700Z,14.40
2019-05-19T12:54:38.332Z,14.23
2019-05-19T12:57:12.622Z,14.40
2019-05-19T12:59:50.470Z,12.77
2019-05-19T13:02:23.226Z,11.50
2019-05-19T13:05:04.988Z,11.00
2019-05-19T13:07:32.056Z,11.73
2019-05-19T13:10:15.370Z,11.97
2019-05-19T13:12:49.613Z,11.53
2019-05-19T13:15:20.923Z,11.93
2019-05-19T13:17:56.664Z,11.70
2019-05-19T13:20:28.510Z,12.00
2019-05-19T13:23:00.728Z,11.13
2019-05-19T13:25:37.567Z,10.30
2019-05-19T13:28:09.808Z,9.70
2019-05-19T13:30:43.811Z,9.30
2019-05-19T13:33:15.360Z,9.20
2019-05-19T13:35:48.812Z,9.70
2019-05-19T13:38:23.482Z,9.13
2019-05-19T13:40:55.784Z,9.93
2019-05-19T13:43:30.900Z,11.00
2019-05-19T13:46:03.055Z,10.10
2019-05-19T13:48:36.846Z,10.50
2019-05-19T13:51:11.264Z,10.00
2019-05-19T13:53:43.936Z,9.40
2019-05-19T13:56:18.390Z,9.20
2019-05-19T13:58:52.121Z,10.93
2019-05-19T14:01:28.703Z,10.40
2019-05-19T14:04:05.123Z,8.93
2019-05-19T14:06:39.140Z,9.60
2019-05-19T14:09:15.300Z,11.60
2019-05-19T14:11:48.373Z,9.60
2019-05-19T14:14:22.553Z,10.27
2019-05-19T14:16:55.735Z,10.60
2019-05-19T14:19:31.047Z,10.70
2019-05-19T14:22:07.780Z,11.50
2019-05-19T14:24:41.965Z,9.73
2019-05-19T14:27:29.238Z,10.10
2019-05-19T14:29:52.815Z,10.30
2019-05-19T14:32:26.250Z,10.00
2019-05-19T14:35:17.166Z,10.33
2019-05-19T14:37:53.618Z,9.07
2019-05-19T14:40:25.123Z,11.03
2019-05-19T14:43:03.626Z,10.23
2019-05-19T14:45:35.661Z,10.70
2019-05-19T14:48:07.366Z,10.40
2019-05-19T14:50:39.214Z,9.80
2019-05-19T14:53:12.658Z,9.97
2019-05-19T14:55:47.162Z,10.80
2019-05-19T14:58:19.064Z,10.00
2019-05-19T15:00:54.218Z,10.47
2019-05-19T15:03:27.943Z,12.40
2019-05-19T15:06:01.324Z,11.43
2019-05-19T15:08:37.585Z,12.17
2019-05-19T15:11:13.332Z,12.40
2019-05-19T15:13:49.051Z,11.97
2019-05-19T15:16:23.066Z,12.70
2019-05-19T15:18:56.772Z,11.30
2019-05-19T15:21:31.947Z,10.03
2019-05-19T15:24:05.470Z,9.40
2019-05-19T15:26:40.787Z,9.80
2019-05-19T15:29:14.588Z,14.20
2019-05-19T15:31:46.309Z,10.70
2019-05-19T15:34:19.687Z,12.57
2019-05-19T15:36:56.752Z,12.83
2019-05-19T15:39:29.422Z,11.13
2019-05-19T15:42:03.496Z,12.30
2019-05-19T15:44:36.139Z,13.03
2019-05-19T15:47:11.306Z,14.20
2019-05-19T15:49:43.374Z,12.47
2019-05-19T15:52:15.389Z,13.33
2019-05-19T15:54:47.589Z,13.43
2019-05-19T15:57:18.902Z,12.50
2019-05-19T15:59:52.333Z,11.10
2019-05-19T16:02:25.490Z,11.27
2019-05-19T16:05:01.033Z,11.13
2019-05-19T16:07:35.623Z,10.67
2019-05-19T16:10:18.025Z,9.40
2019-05-19T16:12:50.748Z,9.57
2019-05-19T16:15:23.510Z,9.47
2019-05-19T16:17:56.792Z,9.97
2019-05-19T16:20:33.059Z,9.63
2019-05-19T16:23:05.956Z,10.57
2019-05-19T16:25:39.857Z,10.53
2019-05-19T16:28:12.373Z,10.70
2019-05-19T16:30:45.669Z,11.90
2019-05-19T16:33:18.811Z,10.87
2019-05-19T16:35:53.790Z,10.90
2019-05-19T16:38:26.111Z,11.97
2019-05-19T16:40:57.606Z,12.50
2019-05-19T16:43:29.929Z,12.40
2019-05-19T16:46:04.299Z,13.60
2019-05-19T16:48:39.878Z,13.23
2019-05-19T16:51:15.159Z,13.53
2019-05-19T16:53:49.956Z,12.70
2019-05-19T16:56:23.766Z,12.60
2019-05-19T16:58:56.931Z,12.83
2019-05-19T17:01:31.339Z,12.00
2019-05-19T17:04:02.674Z,13.20
2019-05-19T17:06:37.913Z,12.27
2019-05-19T17:09:10.017Z,12.47
2019-05-19T17:11:44.297Z,12.40
2019-05-19T17:14:17.970Z,13.20
2019-05-19T17:16:52.869Z,12.77
2019-05-19T17:19:25.856Z,13.00
2019-05-19T17:22:00.688Z,13.03
2019-05-19T17:24:36.478Z,12.00
2019-05-19T17:27:12.323Z,13.07
2019-05-19T17:29:46.637Z,13.27
2019-05-19T17:32:22.866Z,13.20
2019-05-19T17:34:57.179Z,13.00
2019-05-19T17:37:31.086Z,13.73
2019-05-19T17:40:17.034Z,12.87
2019-05-19T17:42:50.310Z,13.27
2019-05-19T17:45:25.965Z,13.70
2019-05-19T17:48:10.141Z,12.47
2019-05-19T17:50:40.180Z,14.00
2019-05-19T17:53:13.662Z,13.93
2019-05-19T17:55:48.325Z,13.70
2019-05-19T17:58:24.109Z,12.80
2019-05-19T18:01:00.723Z,15.40
2019-05-19T18:03:36.454Z,15.77
2019-05-19T18:06:12.580Z,14.80
2019-05-19T18:08:46.749Z,15.00
2019-05-19T18:11:21.000Z,14.50
2019-05-19T18:13:54.007Z,14.50
2019-05-19T18:16:30.488Z,15.30
2019-05-19T18:19:05.656Z,14.63
2019-05-19T18:21:38.229Z,15.03
2019-05-19T18:24:11.594Z,15.23
2019-05-19T18:26:46.799Z,15.40
2019-05-19T18:29:31.047Z,17.53
2019-05-19T18:31:57.891Z,17.37
2019-05-19T18:34:32.179Z,24.90
2019-05-19T18:37:06.354Z,16.47
2019-05-19T18:39:39.705Z,14.80
2019-05-19T18:42:13.311Z,15.57
2019-05-19T18:44:47.211Z,16.10
2019-05-19T18:47:20.459Z,15.90
2019-05-19T18:49:55.299Z,15.93
2019-05-19T18:52:47.362Z,15.70
2019-05-19T18:55:19.990Z,15.93
2019-05-19T18:57:53.658Z,14.50
2019-05-19T19:00:37.449Z,16.40
2019-05-19T19:03:10.837Z,14.30
2019-05-19T19:05:42.638Z,15.27
2019-05-19T19:08:18.304Z,15.10
2019-05-19T19:10:51.309Z,15.43
2019-05-19T19:13:23.462Z,16.70
2019-05-19T19:15:55.727Z,15.90
2019-05-19T19:18:28.629Z,16.20
2019-05-19T19:21:03.633Z,16.20
2019-05-19T19:23:38.482Z,16.50
2019-05-19T19:26:22.036Z,16.70
2019-05-19T19:29:06.744Z,15.20
2019-05-19T19:31:48.069Z,18.20
2019-05-19T19:34:13.943Z,15.60
2019-05-19T19:36:48.197Z,15.90
2019-05-19T19:39:21.813Z,14.30
2019-05-19T19:41:55.057Z,16.03
2019-05-19T19:44:27.933Z,16.23
2019-05-19T19:46:59.510Z,15.67
2019-05-19T19:49:34.415Z,15.83
2019-05-19T19:52:07.016Z,15.57
2019-05-19T19:54:39.573Z,14.53
2019-05-19T19:57:13.823Z,15.07
2019-05-19T19:59:46.610Z,19.20
2019-05-19T20:02:18.127Z,16.73
2019-05-19T20:04:51.669Z,17.70
2019-05-19T20:07:25.119Z,19.10
2019-05-19T20:09:58.920Z,18.30
2019-05-19T20:12:43.612Z,17.07
2019-05-19T20:15:20.079Z,18.00
2019-05-19T20:17:52.023Z,15.87
2019-05-19T20:20:25.627Z,15.33
2019-05-19T20:22:58.881Z,14.17
2019-05-19T20:25:37.140Z,12.73
2019-05-19T20:28:09.906Z,13.07
2019-05-19T20:30:42.879Z,11.67
2019-05-19T20:33:18.660Z,11.30
2019-05-19T20:35:52.999Z,12.30
2019-05-19T20:38:27.333Z,12.90
2019-05-19T20:41:03.023Z,13.37
2019-05-19T20:43:38.256Z,11.30
2019-05-19T20:46:11.589Z,11.33
2019-05-19T20:48:47.016Z,11.40
2019-05-19T20:51:22.562Z,13.00
2019-05-19T20:53:54.797Z,10.97
2019-05-19T20:56:30.506Z,10.67
2019-05-19T20:59:02.320Z,9.90
2019-05-19T21:01:35.858Z,9.23
2019-05-19T21:04:07.278Z,8.30
2019-05-19T21:06:42.607Z,10.23
2019-05-19T21:09:17.172Z,9.70
2019-05-19T21:11:49.857Z,10.57
2019-05-19T21:14:23.826Z,8.67
2019-05-19T21:16:58.899Z,9.27
2019-05-19T21:19:32.200Z,9.20
2019-05-19T21:22:05.184Z,8.37
2019-05-19T21:24:37.943Z,8.67
2019-05-19T21:27:09.387Z,8.57
2019-05-19T21:29:44.286Z,7.90
2019-05-19T21:32:16.103Z,8.43
2019-05-19T21:34:52.147Z,8.40
2019-05-19T21:37:27.905Z,8.50
2019-05-19T21:40:01.937Z,9.33
2019-05-19T21:42:44.182Z,9.57
2019-05-19T21:45:17.441Z,9.80
2019-05-19T21:47:49.969Z,9.40
2019-05-19T21:50:23.997Z,9.60
2019-05-19T21:52:57.009Z,9.10
2019-05-19T21:55:30.878Z,9.80
2019-05-19T21:58:04.057Z,9.43
2019-05-19T22:00:39.755Z,8.90
2019-05-19T22:03:14.199Z,8.03
2019-05-19T22:05:53.436Z,8.23
2019-05-19T22:08:23.752Z,8.17
2019-05-19T22:10:56.209Z,8.80
2019-05-19T22:13:29.000Z,8.27
2019-05-19T22:16:12.285Z,8.83
2019-05-19T22:18:36.825Z,9.37
2019-05-19T22:21:11.996Z,8.33
2019-05-19T22:23:46.099Z,8.33
2019-05-19T22:26:19.701Z,9.30
2019-05-19T22:28:53.419Z,8.40
2019-05-19T22:31:36.182Z,20.70
2019-05-19T22:34:03.206Z,25.70
2019-05-19T22:36:36.588Z,10.23
2019-05-19T22:39:10.415Z,8.33
2019-05-19T22:41:42.018Z,8.17
2019-05-19T22:44:16.675Z,8.27
2019-05-19T22:46:49.787Z,7.80
2019-05-19T22:49:22.493Z,8.57
2019-05-19T22:51:54.532Z,7.83
2019-05-19T22:54:29.237Z,8.20
2019-05-19T22:57:01.818Z,8.43
2019-05-19T22:59:33.236Z,7.43
2019-05-19T23:02:09.189Z,8.30
2019-05-19T23:04:40.122Z,8.33
2019-05-19T23:07:14.402Z,8.07
2019-05-19T23:09:49.520Z,7.20
2019-05-19T23:12:21.210Z,8.20
2019-05-19T23:14:53.112Z,8.67
2019-05-19T23:17:27.396Z,7.80
2019-05-19T23:19:58.902Z,7.97
2019-05-19T23:22:31.390Z,7.70
2019-05-19T23:25:15.588Z,8.07
2019-05-19T23:27:47.807Z,7.70
2019-05-19T23:30:19.871Z,7.57
2019-05-19T23:32:53.624Z,7.70
2019-05-19T23:35:29.345Z,7.77
2019-05-19T23:38:03.718Z,8.47
2019-05-19T23:40:37.352Z,8.77
2019-05-19T23:43:10.826Z,8.90
2019-05-19T23:45:46.801Z,9.00
2019-05-19T23:48:19.577Z,8.63
2019-05-19T23:50:52.558Z,9.30
2019-05-19T23:53:24.751Z,8.53
2019-05-19T23:55:58.599Z,9.50
2019-05-19T23:58:31.861Z,9.40
